Time;durP1;ratioP1;P1;durP2;ratioP2;P2;SDS_P1;SDS_P2;PMS_P1;PMS_P2;Temp;Humidity;BMP_temperature;BMP_pressure;BME280_temperature;BME280_humidity;BME280_pressure;Samples;Min_cycle;Max_cycle;Signal;HPM_P1;HPM_P2
2021/01/25 00:00:33;;;;;;;12.61;4.84;;;;;;;8.54;77.16;98009.58;361536;106;1961943;-72
2021/01/25 00:01:38;;;;;;;13.18;4.84;;;;;;;8.57;77.01;98016.38;373869;107;1961957;-73
2021/01/25 00:02:44;;;;;;;11.66;5.26;;;;;;;8.58;76.87;98021.53;372024;108;1963961;-73
2021/01/25 00:03:49;;;;;;;12.59;5.63;;;;;;;8.58;76.84;98018.03;371310;107;1962016;-73
2021/01/25 00:04:54;;;;;;;12.01;5.44;;;;;;;8.55;76.99;98021.19;374988;107;1962008;-72
2021/01/25 00:06:00;;;;;;;13.88;4.97;;;;;;;8.55;76.92;98016.63;369387;108;1961887;-72
2021/01/25 00:07:07;;;;;;;10.51;4.86;;;;;;;8.53;77.02;98015.22;368657;110;1961980;-73
2021/01/25 00:08:12;;;;;;;11.17;5.28;;;;;;;8.51;77.17;98020.00;331120;108;2623917;-72
2021/01/25 00:09:20;;;;;;;9.52;5.22;;;;;;;8.55;76.94;98023.88;373759;108;1962960;-73
2021/01/25 00:10:28;;;;;;;13.99;4.93;;;;;;;8.52;77.04;98030.55;360373;110;2887002;-73
2021/01/25 00:11:33;;;;;;;13.03;4.93;;;;;;;8.51;77.06;98028.89;360571;106;1963951;-72
2021/01/25 00:12:38;;;;;;;11.44;5.59;;;;;;;8.47;77.35;98034.99;363234;110;1961873;-73
2021/01/25 00:13:43;;;;;;;12.68;4.90;;;;;;;8.45;77.27;98040.59;371886;108;1961983;-73
2021/01/25 00:14:49;;;;;;;12.39;4.69;;;;;;;8.42;77.40;98034.87;373983;108;1962044;-71
2021/01/25 00:15:54;;;;;;;13.50;5.77;;;;;;;8.42;77.41;98032.99;362234;106;1959747;-70
2021/01/25 00:17:00;;;;;;;13.02;5.43;;;;;;;8.43;77.41;98034.62;353910;114;1962011;-70
2021/01/25 00:18:06;;;;;;;15.36;5.62;;;;;;;8.43;77.40;98037.31;361411;112;1961962;-70
2021/01/25 00:19:12;;;;;;;16.79;5.57;;;;;;;8.44;77.39;98027.36;345515;116;1964901;-69
2021/01/25 00:20:18;;;;;;;17.62;5.24;;;;;;;8.43;77.37;98031.11;333472;114;2351907;-70
2021/01/25 00:21:25;;;;;;;14.99;5.41;;;;;;;8.43;77.37;98029.23;354736;112;1961934;-70
2021/01/25 00:22:41;;;;;;;17.77;5.53;;;;;;;8.43;77.42;98031.11;357084;112;1962025;-70
2021/01/25 00:23:47;;;;;;;16.98;6.04;;;;;;;8.44;77.32;98027.36;348566;116;1962004;-70
2021/01/25 00:25:06;;;;;;;15.59;6.02;;;;;;;8.39;77.48;98017.31;311112;114;2763929;-70
2021/01/25 00:26:11;;;;;;;12.38;5.50;;;;;;;8.36;77.59;98021.26;365460;111;1961937;-70
2021/01/25 00:27:16;;;;;;;14.20;4.98;;;;;;;8.37;77.79;98024.77;359972;112;1961962;-70
2021/01/25 00:28:23;;;;;;;14.82;5.84;;;;;;;8.40;77.67;98024.33;359010;111;1961929;-69
2021/01/25 00:29:29;;;;;;;15.24;6.26;;;;;;;8.44;77.45;98020.13;373887;109;1961874;-70
2021/01/25 00:30:35;;;;;;;15.39;5.03;;;;;;;8.41;77.44;98017.06;371923;109;1962030;-71
2021/01/25 00:31:41;;;;;;;15.25;5.42;;;;;;;8.41;77.54;98017.88;367499;109;1961978;-70
2021/01/25 00:32:47;;;;;;;12.74;5.31;;;;;;;8.42;77.44;98019.54;367581;108;1961965;-70
2021/01/25 00:33:53;;;;;;;16.42;4.91;;;;;;;8.43;77.47;98021.16;367420;109;1961921;-70
2021/01/25 00:34:59;;;;;;;12.36;4.48;;;;;;;8.42;77.37;98008.77;321024;107;2822913;-69
2021/01/25 00:36:05;;;;;;;13.60;5.29;;;;;;;8.40;77.61;98010.88;344312;111;1962041;-70
2021/01/25 00:37:21;;;;;;;9.37;4.57;;;;;;;8.42;77.53;98016.03;366200;109;1962047;-70
2021/01/25 00:38:27;;;;;;;13.65;4.83;;;;;;;8.43;77.43;98013.09;369620;110;1961936;-70
2021/01/25 00:39:43;;;;;;;10.38;4.33;;;;;;;8.44;77.26;98005.83;369621;108;1961943;-70
2021/01/25 00:40:50;;;;;;;11.31;3.53;;;;;;;8.42;77.43;98008.77;328673;110;2646012;-70
2021/01/25 00:41:56;;;;;;;11.01;4.14;;;;;;;8.42;77.50;98014.16;356433;110;1961952;-69
2021/01/25 00:43:01;;;;;;;9.57;4.07;;;;;;;8.42;77.50;98007.96;366096;110;1963950;-68
2021/01/25 00:44:07;;;;;;;12.62;4.20;;;;;;;8.39;77.60;98009.25;367117;110;1961911;-70
2021/01/25 00:45:13;;;;;;;10.33;4.57;;;;;;;8.39;77.62;98014.63;368253;110;1960930;-70
2021/01/25 00:46:20;;;;;;;9.88;4.19;;;;;;;8.42;77.66;98006.09;306703;110;2172984;-69
2021/01/25 00:47:32;;;;;;;10.40;3.67;;;;;;;8.45;77.55;97997.55;336467;110;1963931;-71
2021/01/25 00:48:37;;;;;;;8.86;4.29;;;;;;;8.47;77.33;98003.52;367209;110;1963954;-70
2021/01/25 00:49:42;;;;;;;13.87;4.14;;;;;;;8.46;77.30;97995.66;364366;110;1964982;-70
2021/01/25 00:50:49;;;;;;;11.26;3.82;;;;;;;8.45;77.30;97988.66;365717;110;1961947;-70
2021/01/25 00:51:54;;;;;;;10.69;4.38;;;;;;;8.50;77.03;97989.59;365648;110;1961968;-70
2021/01/25 00:53:00;;;;;;;12.06;3.82;;;;;;;8.47;77.03;97990.06;324683;110;1961949;-70
2021/01/25 00:54:07;;;;;;;10.44;4.78;;;;;;;8.44;77.10;97989.69;343347;112;1962924;-70
2021/01/25 00:55:14;;;;;;;12.81;4.53;;;;;;;8.44;77.06;97989.69;361117;106;1961075;-71
2021/01/25 00:56:21;;;;;;;15.62;4.13;;;;;;;8.41;77.24;97982.09;325118;104;2742871;-70
2021/01/25 00:57:26;;;;;;;10.92;4.44;;;;;;;8.38;77.33;97988.72;356269;108;1961958;-70
2021/01/25 00:58:31;;;;;;;10.86;4.88;;;;;;;8.37;77.40;97976.33;376328;108;1961905;-71
2021/01/25 00:59:37;;;;;;;9.89;3.84;;;;;;;8.40;77.32;97981.28;361424;103;1962757;-70
2021/01/25 01:00:43;;;;;;;11.57;4.48;;;;;;;8.40;77.29;97972.39;355749;113;1962913;-70
2021/01/25 01:01:48;;;;;;;9.34;3.83;;;;;;;8.39;77.27;97974.27;356549;112;1962049;-70
2021/01/25 01:02:54;;;;;;;8.51;4.15;;;;;;;8.38;77.33;97980.66;351218;114;1961828;-70
2021/01/25 01:04:00;;;;;;;8.72;4.39;;;;;;;8.36;77.44;97974.67;353848;112;1961916;-70
2021/01/25 01:05:08;;;;;;;8.80;4.33;;;;;;;8.38;77.53;97977.96;305965;115;2851961;-71
2021/01/25 01:06:14;;;;;;;10.73;4.73;;;;;;;8.36;77.46;97980.06;353955;115;1961937;-70
2021/01/25 01:07:20;;;;;;;10.12;5.00;;;;;;;8.36;77.58;97967.45;348774;115;1962044;-68
2021/01/25 01:08:26;;;;;;;9.07;4.31;;;;;;;8.37;77.33;97974.45;317896;117;2518897;-71
2021/01/25 01:09:35;;;;;;;8.76;4.27;;;;;;;8.38;77.33;97972.58;312515;115;1969621;-70
2021/01/25 01:10:42;;;;;;;9.17;4.22;;;;;;;8.36;77.35;97971.98;364842;108;2954939;-71
2021/01/25 01:11:47;;;;;;;9.82;4.37;;;;;;;8.34;77.60;97969.55;358540;108;1963972;-72
2021/01/25 01:12:52;;;;;;;9.81;3.94;;;;;;;8.38;77.49;97972.58;370371;108;1961920;-69
2021/01/25 01:13:58;;;;;;;7.16;3.71;;;;;;;8.37;77.41;97969.08;365164;110;1962019;-70
2021/01/25 01:15:07;;;;;;;11.29;4.68;;;;;;;8.38;77.47;97976.08;366385;111;1962009;-70
2021/01/25 01:16:13;;;;;;;8.42;4.16;;;;;;;8.38;77.49;97973.39;367042;111;1961889;-71
2021/01/25 01:17:18;;;;;;;9.47;4.29;;;;;;;8.42;77.31;97967.60;361955;111;1961841;-70
2021/01/25 01:18:24;;;;;;;11.56;3.99;;;;;;;8.42;77.21;97967.60;366204;111;1960964;-70
2021/01/25 01:19:29;;;;;;;8.87;3.71;;;;;;;8.44;77.24;97969.01;370132;108;1962905;-70
2021/01/25 01:20:36;;;;;;;9.17;4.22;;;;;;;8.42;77.23;97965.73;362411;110;1961970;-70
2021/01/25 01:21:42;;;;;;;8.18;3.95;;;;;;;8.41;77.32;97965.95;314430;110;2887644;-69
2021/01/25 01:22:48;;;;;;;10.49;4.00;;;;;;;8.42;77.52;97963.03;339580;113;1961943;-70
2021/01/25 01:23:53;;;;;;;11.68;4.09;;;;;;;8.45;77.43;97959.88;361861;108;1961958;-70
2021/01/25 01:24:59;;;;;;;8.07;4.09;;;;;;;8.47;77.26;97960.47;366549;107;1960878;-69
2021/01/25 01:26:04;;;;;;;7.89;3.62;;;;;;;8.46;77.09;97966.06;364168;109;1961895;-69
2021/01/25 01:27:10;;;;;;;9.08;3.93;;;;;;;8.45;77.29;97961.75;363846;111;1961924;-69
2021/01/25 01:28:15;;;;;;;8.33;3.88;;;;;;;8.47;77.13;97956.96;363364;109;1961979;-68
2021/01/25 01:29:20;;;;;;;7.53;3.69;;;;;;;8.45;77.25;97959.06;358929;113;1961951;-70
2021/01/25 01:30:27;;;;;;;8.89;4.16;;;;;;;8.47;77.38;97954.27;359023;111;1961932;-69
2021/01/25 01:31:33;;;;;;;8.54;4.44;;;;;;;8.48;76.98;97964.78;330018;110;2518909;-70
2021/01/25 01:32:38;;;;;;;11.33;4.19;;;;;;;8.48;76.87;97963.97;342870;109;1961916;-70
2021/01/25 01:33:44;;;;;;;9.12;4.19;;;;;;;8.51;76.79;97967.00;358419;111;1963904;-70
2021/01/25 01:34:50;;;;;;;8.81;4.29;;;;;;;8.50;76.65;97953.80;358378;113;1961894;-70
2021/01/25 01:35:55;;;;;;;9.99;3.98;;;;;;;8.47;76.73;97957.77;357698;108;1963224;-71
2021/01/25 01:37:01;;;;;;;8.71;3.81;;;;;;;8.47;76.79;97962.34;350775;114;1961757;-70
2021/01/25 01:38:06;;;;;;;11.66;4.10;;;;;;;8.44;76.88;97960.94;347670;115;1965021;-70
2021/01/25 01:39:13;;;;;;;7.67;3.82;;;;;;;8.45;76.95;97962.56;339633;119;1960985;-71
2021/01/25 01:40:19;;;;;;;6.78;3.34;;;;;;;8.45;76.90;97961.75;331836;122;1962039;-69
2021/01/25 01:41:25;;;;;;;12.29;3.91;;;;;;;8.44;77.00;97960.94;335606;119;1962094;-70
2021/01/25 01:42:40;;;;;;;8.72;4.22;;;;;;;8.45;77.05;97959.06;344407;117;1961946;-71
2021/01/25 01:43:47;;;;;;;10.30;4.13;;;;;;;8.43;77.08;97961.97;354289;111;1961933;-70
2021/01/25 01:44:53;;;;;;;9.51;4.50;;;;;;;8.45;77.04;97959.06;358823;108;1961905;-70
2021/01/25 01:45:59;;;;;;;10.03;3.98;;;;;;;8.44;77.04;97969.01;353553;112;2935978;-69
2021/01/25 01:47:05;;;;;;;9.31;3.69;;;;;;;8.46;77.01;97966.06;365104;105;1960682;-71
2021/01/25 01:48:11;;;;;;;10.19;4.19;;;;;;;8.47;76.87;97970.41;367559;108;1961912;-71
2021/01/25 01:49:16;;;;;;;8.42;4.25;;;;;;;8.47;76.89;97965.84;361823;108;1962013;-71
2021/01/25 01:50:24;;;;;;;7.82;4.08;;;;;;;8.47;76.89;97970.41;357563;112;1963962;-71
2021/01/25 01:51:30;;;;;;;7.59;3.86;;;;;;;8.45;77.08;97967.13;291329;114;2221967;-71
2021/01/25 01:52:36;;;;;;;8.61;3.49;;;;;;;8.51;76.94;97969.69;354440;114;1962023;-71
2021/01/25 01:53:42;;;;;;;8.04;3.87;;;;;;;8.52;76.78;97970.50;353314;103;1961979;-70
2021/01/25 01:54:47;;;;;;;6.91;3.81;;;;;;;8.53;76.62;97966.78;373748;103;1962180;-73
2021/01/25 01:55:53;;;;;;;9.62;4.06;;;;;;;8.52;76.75;97967.81;356875;112;1964042;-72
2021/01/25 01:56:59;;;;;;;7.83;4.28;;;;;;;8.50;76.47;97962.69;357469;111;1961948;-72
2021/01/25 01:58:06;;;;;;;7.68;3.54;;;;;;;8.46;76.66;97961.50;312731;110;2801920;-72
2021/01/25 01:59:12;;;;;;;8.54;3.96;;;;;;;8.47;76.66;97963.16;356424;114;1964952;-72
2021/01/25 02:00:21;;;;;;;9.22;3.89;;;;;;;8.45;76.94;97959.88;357807;111;1961988;-73
2021/01/25 02:01:27;;;;;;;10.63;4.12;;;;;;;8.46;76.81;97961.50;363435;110;1960970;-72
2021/01/25 02:02:33;;;;;;;7.88;4.05;;;;;;;8.48;76.83;97972.04;356281;111;1962943;-72
2021/01/25 02:03:38;;;;;;;11.26;3.79;;;;;;;8.48;76.73;97964.78;360594;110;1961993;-72
2021/01/25 02:04:46;;;;;;;9.76;3.91;;;;;;;8.48;76.69;97959.39;368162;110;1960986;-72
2021/01/25 02:05:52;;;;;;;12.13;4.55;;;;;;;8.48;76.73;97954.02;354236;110;1964015;-73
2021/01/25 02:07:00;;;;;;;10.57;4.08;;;;;;;8.45;76.71;97959.88;361163;111;1960912;-72
2021/01/25 02:08:07;;;;;;;12.44;3.99;;;;;;;8.44;76.83;97955.55;318849;112;2013867;-73
2021/01/25 02:09:12;;;;;;;11.76;4.14;;;;;;;8.42;76.87;97959.53;360782;112;1961982;-73
2021/01/25 02:10:22;;;;;;;12.72;4.79;;;;;;;8.43;76.84;97970.04;359704;112;1960544;-73
2021/01/25 02:11:29;;;;;;;12.94;4.59;;;;;;;8.42;77.06;97968.41;356428;111;1960710;-72
2021/01/25 02:12:36;;;;;;;9.66;4.03;;;;;;;8.42;77.09;97960.34;358221;109;1960939;-72
2021/01/25 02:13:42;;;;;;;11.33;4.33;;;;;;;8.42;77.07;97963.03;309200;112;2099726;-75
2021/01/25 02:14:48;;;;;;;9.20;4.35;;;;;;;8.43;77.07;97961.16;357315;111;1961809;-73
2021/01/25 02:15:54;;;;;;;12.37;4.13;;;;;;;8.42;77.27;97965.73;354872;114;1961920;-73
2021/01/25 02:16:59;;;;;;;11.74;4.38;;;;;;;8.45;77.31;97964.44;360637;112;1962026;-71
2021/01/25 02:18:06;;;;;;;12.32;3.88;;;;;;;8.49;77.10;97971.79;355847;112;1961968;-73
2021/01/25 02:19:15;;;;;;;12.03;4.29;;;;;;;8.51;76.91;97966.19;319630;112;1961960;-72
2021/01/25 02:20:36;;;;;;;12.13;4.38;;;;;;;8.55;76.57;97970.88;322760;112;1962017;-72
2021/01/25 02:21:58;;;;;;;9.51;4.02;;;;;;;8.54;76.50;97968.41;293636;114;2198094;-72
2021/01/25 02:23:25;;;;;;;15.64;5.02;;;;;;;8.53;76.49;97970.28;354915;113;1961958;-72
2021/01/25 02:24:34;;;;;;;10.48;4.56;;;;;;;8.50;76.54;97973.45;354835;114;1960870;-72
2021/01/25 02:25:49;;;;;;;9.88;3.93;;;;;;;8.48;76.61;97970.16;358016;111;1961973;-73
2021/01/25 02:27:01;;;;;;;12.17;4.38;;;;;;;8.48;76.82;97969.34;355357;112;1961894;-72
2021/01/25 02:28:07;;;;;;;11.64;4.36;;;;;;;8.47;76.76;97965.84;315963;110;2682950;-72
2021/01/25 02:29:12;;;;;;;13.01;4.62;;;;;;;8.46;76.77;97974.95;322768;110;1961998;-71
2021/01/25 02:30:19;;;;;;;12.17;3.87;;;;;;;8.46;76.77;97982.21;357130;110;1961895;-72
2021/01/25 02:31:26;;;;;;;12.27;4.84;;;;;;;8.48;76.78;97975.55;356138;112;1964895;-71
2021/01/25 02:32:35;;;;;;;13.27;4.11;;;;;;;8.47;76.85;97984.69;328009;108;2542933;-72
2021/01/25 02:33:47;;;;;;;14.64;4.56;;;;;;;8.46;76.83;97984.90;356450;112;1960973;-72
2021/01/25 02:34:54;;;;;;;13.14;4.48;;;;;;;8.46;76.96;97974.95;290235;112;2263837;-72
2021/01/25 02:36:00;;;;;;;10.41;4.47;;;;;;;8.48;76.99;97974.73;357607;112;1961990;-72
2021/01/25 02:37:08;;;;;;;11.36;4.82;;;;;;;8.47;76.94;97979.30;356752;112;1960707;-72
2021/01/25 02:38:16;;;;;;;13.11;3.87;;;;;;;8.50;76.71;97975.32;332684;112;1961893;-72
2021/01/25 02:39:22;;;;;;;13.53;4.13;;;;;;;8.49;76.69;97979.86;356073;110;1960927;-72
2021/01/25 02:40:30;;;;;;;10.72;4.22;;;;;;;8.50;76.66;97978.02;304226;112;2141031;-72
2021/01/25 02:41:36;;;;;;;12.89;4.65;;;;;;;8.47;76.71;97973.92;356203;111;1962964;-73
2021/01/25 02:42:43;;;;;;;10.10;4.63;;;;;;;8.48;76.77;97978.23;357126;114;1962954;-72
2021/01/25 02:43:51;;;;;;;11.76;4.19;;;;;;;8.48;76.71;97970.16;347992;112;1960978;-73
2021/01/25 02:44:58;;;;;;;13.58;4.31;;;;;;;8.47;76.71;97987.38;356616;112;1961861;-73
2021/01/25 02:46:05;;;;;;;13.59;4.43;;;;;;;8.49;76.66;97976.36;338806;112;1961927;-73
2021/01/25 02:47:12;;;;;;;11.58;4.70;;;;;;;8.46;76.62;97976.83;361688;111;1960988;-71
2021/01/25 02:48:18;;;;;;;8.83;4.21;;;;;;;8.44;76.73;97985.16;360823;112;1963544;-72
2021/01/25 02:49:24;;;;;;;11.79;5.10;;;;;;;8.46;76.85;97982.21;305269;112;2091931;-72
2021/01/25 02:50:31;;;;;;;13.80;4.50;;;;;;;8.45;76.73;97980.58;356960;112;1962072;-73
2021/01/25 02:51:36;;;;;;;17.38;5.18;;;;;;;8.43;76.80;97983.50;355694;111;1961946;-73
2021/01/25 02:52:41;;;;;;;12.96;5.21;;;;;;;8.42;77.08;97986.44;360624;112;1962063;-72
2021/01/25 02:53:46;;;;;;;15.82;5.15;;;;;;;8.43;76.85;97982.69;359009;112;1961932;-71
2021/01/25 02:54:51;;;;;;;12.56;5.13;;;;;;;8.42;76.93;97984.56;355110;112;1963009;-72
2021/01/25 02:55:59;;;;;;;14.36;5.00;;;;;;;8.43;76.96;97991.56;354830;112;1961947;-72
2021/01/25 02:57:08;;;;;;;11.55;4.60;;;;;;;8.47;76.89;97986.56;303826;115;2057985;-72
2021/01/25 02:58:15;;;;;;;11.86;5.14;;;;;;;8.46;77.01;97987.59;344961;114;2911888;-72
2021/01/25 02:59:20;;;;;;;13.88;4.91;;;;;;;8.47;76.91;97990.06;320997;118;1961931;-73
2021/01/25 03:00:26;;;;;;;12.17;4.39;;;;;;;8.48;76.83;97991.69;348520;115;1961967;-74
2021/01/25 03:01:32;;;;;;;13.36;4.74;;;;;;;8.52;76.63;97992.88;350232;115;1961955;-72
2021/01/25 03:02:38;;;;;;;14.66;5.63;;;;;;;8.55;76.37;97984.33;356236;114;1962070;-72
2021/01/25 03:03:46;;;;;;;14.56;5.05;;;;;;;8.51;76.24;97993.91;345286;112;2939029;-73
2021/01/25 03:04:52;;;;;;;14.89;5.65;;;;;;;8.53;76.37;97994.50;351952;114;1961877;-72
2021/01/25 03:05:58;;;;;;;14.14;4.99;;;;;;;8.49;76.40;97993.31;348659;113;1961935;-72
2021/01/25 03:07:04;;;;;;;14.03;5.36;;;;;;;8.51;76.34;97993.91;347493;115;1961947;-72
2021/01/25 03:08:10;;;;;;;17.22;5.44;;;;;;;8.50;76.28;97994.16;311189;113;2728945;-72
2021/01/25 03:09:15;;;;;;;13.19;5.27;;;;;;;8.51;76.15;97993.91;324869;115;1961931;-72
2021/01/25 03:10:21;;;;;;;11.32;4.81;;;;;;;8.49;76.06;97990.63;351693;115;1962947;-71
2021/01/25 03:11:27;;;;;;;11.20;4.98;;;;;;;8.47;76.28;97995.44;350929;116;1962073;-72
2021/01/25 03:12:33;;;;;;;15.99;5.72;;;;;;;8.46;76.22;97993.78;356699;114;1961029;-72
2021/01/25 03:13:38;;;;;;;11.88;5.09;;;;;;;8.44;76.32;98000.45;354920;113;1962012;-72
2021/01/25 03:14:45;;;;;;;10.54;5.04;;;;;;;8.44;76.35;97995.07;351663;115;1962001;-72
2021/01/25 03:15:54;;;;;;;8.96;4.62;;;;;;;8.46;76.32;97998.36;302053;117;2818003;-72
2021/01/25 03:17:00;;;;;;;12.91;4.91;;;;;;;8.45;76.38;97997.55;352898;115;1962966;-72
2021/01/25 03:18:06;;;;;;;14.73;5.73;;;;;;;8.46;76.37;97995.66;341061;113;2892031;-72
2021/01/25 03:19:11;;;;;;;14.97;4.51;;;;;;;8.44;76.38;97995.91;335211;115;1961931;-72
2021/01/25 03:20:17;;;;;;;15.66;5.02;;;;;;;8.49;76.21;97992.50;347581;117;1960802;-72
2021/01/25 03:21:22;;;;;;;12.52;5.72;;;;;;;8.50;76.04;97991.47;349072;115;1961916;-73
2021/01/25 03:22:28;;;;;;;13.59;5.42;;;;;;;8.51;75.84;97991.22;350760;115;1963888;-73
2021/01/25 03:23:34;;;;;;;11.27;4.89;;;;;;;8.49;75.99;97989.81;357541;113;1961899;-73
2021/01/25 03:24:40;;;;;;;14.37;6.08;;;;;;;8.47;76.02;97981.17;356840;113;1962024;-72
2021/01/25 03:25:47;;;;;;;15.68;5.16;;;;;;;8.46;76.10;97974.95;314421;113;2718985;-71
2021/01/25 03:26:53;;;;;;;12.28;5.94;;;;;;;8.46;76.20;97983.02;347982;115;1961973;-72
2021/01/25 03:27:58;;;;;;;14.06;5.47;;;;;;;8.46;76.21;97984.90;347586;115;1961998;-72
2021/01/25 03:29:03;;;;;;;14.25;5.04;;;;;;;8.48;76.12;97972.04;351795;113;1961904;-72
2021/01/25 03:30:11;;;;;;;14.59;5.56;;;;;;;8.47;76.10;97973.10;352330;113;1961933;-72
2021/01/25 03:31:18;;;;;;;14.32;6.03;;;;;;;8.47;76.14;97973.10;351890;113;1963949;-73
2021/01/25 03:32:24;;;;;;;12.63;4.65;;;;;;;8.46;76.19;97972.27;353791;111;1961994;-72
2021/01/25 03:33:29;;;;;;;10.62;5.57;;;;;;;8.48;75.91;97977.42;352533;113;1961952;-73
2021/01/25 03:34:35;;;;;;;13.59;5.42;;;;;;;8.44;75.97;97977.08;355585;113;1960997;-72
2021/01/25 03:35:40;;;;;;;10.07;4.92;;;;;;;8.49;75.69;97976.36;355935;113;1962019;-72
2021/01/25 03:36:46;;;;;;;14.55;5.70;;;;;;;8.49;75.48;97971.79;352997;113;1961962;-73
2021/01/25 03:37:52;;;;;;;12.41;5.55;;;;;;;8.47;75.43;97973.92;342155;115;2886003;-72
2021/01/25 03:38:58;;;;;;;11.24;5.47;;;;;;;8.42;75.53;97976.48;321465;115;1961942;-72
2021/01/25 03:40:05;;;;;;;11.11;5.15;;;;;;;8.40;75.70;97975.08;346275;115;1961982;-72
2021/01/25 03:41:11;;;;;;;9.29;5.16;;;;;;;8.35;75.85;97975.73;345281;116;1961982;-71
2021/01/25 03:42:17;;;;;;;9.93;5.28;;;;;;;8.35;75.87;97968.48;300358;113;2831972;-73
2021/01/25 03:43:23;;;;;;;9.22;5.12;;;;;;;8.37;75.82;97969.08;306382;117;2006922;-72
2021/01/25 03:44:28;;;;;;;8.91;5.19;;;;;;;8.39;75.56;97963.50;319224;113;1961956;-72
2021/01/25 03:45:33;;;;;;;10.79;5.23;;;;;;;8.33;75.71;97967.89;316296;114;1972930;-73
2021/01/25 03:46:39;;;;;;;8.28;5.01;;;;;;;8.31;75.83;97961.13;353317;114;1962992;-72
2021/01/25 03:47:47;;;;;;;9.48;4.87;;;;;;;8.30;75.98;97960.29;346186;116;1961907;-72
2021/01/25 03:48:52;;;;;;;9.20;5.12;;;;;;;8.32;75.91;97958.20;352186;115;1961942;-72
2021/01/25 03:49:58;;;;;;;9.43;5.01;;;;;;;8.31;75.83;97950.37;306897;113;2883899;-71
2021/01/25 03:51:04;;;;;;;10.08;5.24;;;;;;;8.33;75.81;97950.94;320307;115;1962986;-73
2021/01/25 03:52:09;;;;;;;9.46;5.03;;;;;;;8.33;75.79;97946.37;352668;113;1963900;-72
2021/01/25 03:53:15;;;;;;;8.79;5.46;;;;;;;8.32;75.83;97944.74;357857;113;1961924;-72
2021/01/25 03:54:20;;;;;;;8.26;4.04;;;;;;;8.33;75.88;97948.25;357294;113;1963937;-72
2021/01/25 03:55:25;;;;;;;9.12;4.55;;;;;;;8.34;75.76;97945.33;352879;115;1961898;-72
2021/01/25 03:56:32;;;;;;;8.24;4.52;;;;;;;8.35;75.45;97956.91;351761;115;1962132;-72
2021/01/25 03:57:37;;;;;;;8.48;4.63;;;;;;;8.33;75.59;97948.25;349986;115;1961976;-72
2021/01/25 03:58:44;;;;;;;8.05;4.77;;;;;;;8.37;75.60;97946.74;339892;115;2899985;-74
2021/01/25 03:59:49;;;;;;;8.23;4.90;;;;;;;8.35;75.41;97948.84;341298;115;1961930;-73
2021/01/25 04:01:05;;;;;;;9.79;5.62;;;;;;;8.34;75.43;97952.59;356087;112;1961921;-72
2021/01/25 04:02:13;;;;;;;10.12;5.43;;;;;;;8.34;75.42;97945.33;374452;108;1961941;-72
2021/01/25 04:03:18;;;;;;;8.71;4.82;;;;;;;8.33;75.44;97945.55;365415;110;1960912;-72
2021/01/25 04:04:25;;;;;;;8.35;5.04;;;;;;;8.35;75.39;97941.58;315620;110;2848862;-72
2021/01/25 04:05:30;;;;;;;8.55;4.88;;;;;;;8.33;75.23;97943.67;355855;110;1960757;-72
2021/01/25 04:06:37;;;;;;;9.21;4.97;;;;;;;8.33;75.33;97945.55;363379;108;1962023;-72
2021/01/25 04:07:42;;;;;;;8.49;5.17;;;;;;;8.38;75.24;97940.30;366248;109;1961918;-72
2021/01/25 04:08:47;;;;;;;8.82;5.44;;;;;;;8.35;75.14;97944.27;367077;109;1962971;-72
2021/01/25 04:09:53;;;;;;;9.88;5.05;;;;;;;8.34;75.26;97941.83;365101;110;1961935;-72
2021/01/25 04:10:59;;;;;;;10.01;5.58;;;;;;;8.38;75.04;97946.48;364826;110;1965045;-72
2021/01/25 04:12:05;;;;;;;10.14;5.96;;;;;;;8.38;74.88;97951.05;356170;110;2877909;-72
2021/01/25 04:13:11;;;;;;;9.52;5.64;;;;;;;8.39;74.71;97955.44;367724;110;1961964;-72
2021/01/25 04:14:16;;;;;;;10.16;5.71;;;;;;;8.37;74.89;97950.24;366449;110;1961949;-72
2021/01/25 04:15:35;;;;;;;9.57;5.35;;;;;;;8.38;74.69;97953.75;365895;110;1961969;-73
2021/01/25 04:16:42;;;;;;;9.10;5.46;;;;;;;8.38;74.61;97945.67;360281;112;1962009;-70
2021/01/25 04:17:48;;;;;;;10.69;5.64;;;;;;;8.33;74.72;97950.94;355617;113;1963949;-69
2021/01/25 04:18:54;;;;;;;9.78;5.33;;;;;;;8.32;74.71;97947.44;364015;110;1964938;-69
2021/01/25 04:20:01;;;;;;;8.96;5.32;;;;;;;8.34;74.66;97947.21;322873;108;2720999;-70
2021/01/25 04:21:06;;;;;;;10.18;5.57;;;;;;;8.33;74.62;97954.44;358368;110;1961946;-72
2021/01/25 04:22:11;;;;;;;12.16;5.98;;;;;;;8.30;74.70;97951.41;364283;109;1961923;-70
2021/01/25 04:23:17;;;;;;;10.30;5.41;;;;;;;8.29;74.69;97955.97;366008;108;1962983;-70
2021/01/25 04:24:22;;;;;;;8.68;5.24;;;;;;;8.26;74.58;97952.94;365998;109;1961974;-69
2021/01/25 04:25:27;;;;;;;9.33;5.37;;;;;;;8.25;74.76;97951.28;367498;110;1961949;-69
2021/01/25 04:26:33;;;;;;;8.59;5.19;;;;;;;8.25;74.88;97949.41;364256;110;1963943;-69
2021/01/25 04:27:39;;;;;;;8.59;5.22;;;;;;;8.26;74.57;97950.25;366926;110;1961943;-70
2021/01/25 04:28:45;;;;;;;9.83;5.61;;;;;;;8.26;74.40;97950.25;367209;104;1960684;-70
2021/01/25 04:29:51;;;;;;;8.37;4.83;;;;;;;8.27;74.53;97943.81;318959;106;2867972;-68
2021/01/25 04:30:58;;;;;;;8.81;4.84;;;;;;;8.29;74.47;97941.71;372469;106;1961888;-69
2021/01/25 04:32:04;;;;;;;9.44;5.39;;;;;;;8.32;74.17;97946.62;367861;107;1961899;-70
2021/01/25 04:33:10;;;;;;;8.11;4.74;;;;;;;8.31;74.11;97945.80;365654;109;1961959;-70
2021/01/25 04:34:17;;;;;;;9.31;5.43;;;;;;;8.31;74.02;97945.80;327733;107;2657917;-70
2021/01/25 04:35:22;;;;;;;9.63;4.81;;;;;;;8.31;74.01;97940.42;366436;107;1964077;-69
2021/01/25 04:36:29;;;;;;;8.93;5.06;;;;;;;8.30;74.11;97943.34;355260;111;1961941;-70
2021/01/25 04:37:38;;;;;;;8.29;4.94;;;;;;;8.31;74.02;97945.00;290260;113;2206905;-71
2021/01/25 04:38:43;;;;;;;7.84;5.09;;;;;;;8.33;73.84;97948.25;355377;111;1961942;-70
2021/01/25 04:39:48;;;;;;;9.59;5.07;;;;;;;8.35;73.75;97943.45;358908;111;1961905;-70
2021/01/25 04:40:55;;;;;;;9.29;5.13;;;;;;;8.32;73.91;97952.81;361310;109;1966008;-71
2021/01/25 04:42:01;;;;;;;9.38;5.49;;;;;;;8.30;74.02;97946.84;354779;113;1962935;-70
2021/01/25 04:43:08;;;;;;;9.93;5.21;;;;;;;8.38;73.70;97956.44;314579;113;2750933;-71
2021/01/25 04:44:15;;;;;;;8.09;4.81;;;;;;;8.35;73.51;97948.84;358933;109;1962968;-70
2021/01/25 04:45:20;;;;;;;8.11;5.02;;;;;;;8.34;73.70;97945.33;356016;113;1961969;-70
2021/01/25 04:46:29;;;;;;;10.27;4.84;;;;;;;8.35;73.47;97938.08;337010;109;1962015;-70
2021/01/25 04:47:38;;;;;;;9.27;4.99;;;;;;;8.34;73.57;97947.21;354126;109;1961904;-71
2021/01/25 04:48:45;;;;;;;9.12;4.47;;;;;;;8.32;73.49;97936.67;349043;113;1960797;-69
2021/01/25 04:49:52;;;;;;;7.96;4.26;;;;;;;8.30;73.64;97937.95;347491;116;1962068;-69
2021/01/25 04:50:59;;;;;;;7.86;4.56;;;;;;;8.28;73.70;97935.52;310324;116;1982923;-70
2021/01/25 04:52:06;;;;;;;8.75;4.81;;;;;;;8.26;73.94;97931.42;348080;114;1963913;-70
2021/01/25 04:53:14;;;;;;;7.98;4.84;;;;;;;8.25;74.01;97927.08;340699;114;2873996;-71
2021/01/25 04:54:21;;;;;;;9.32;5.16;;;;;;;8.25;73.95;97927.89;349015;113;1961997;-71
2021/01/25 04:55:28;;;;;;;7.97;4.91;;;;;;;8.25;73.97;97933.27;347393;115;1961920;-70
2021/01/25 04:56:36;;;;;;;11.12;5.58;;;;;;;8.23;74.16;97930.02;348759;114;1961962;-70
2021/01/25 04:57:43;;;;;;;8.52;5.13;;;;;;;8.23;74.22;97930.02;348366;116;1961958;-71
2021/01/25 04:58:50;;;;;;;10.05;5.07;;;;;;;8.21;74.24;97929.42;350422;116;1961962;-70
2021/01/25 04:59:56;;;;;;;9.24;4.99;;;;;;;8.27;74.13;97931.17;347979;113;1961951;-70
2021/01/25 05:01:03;;;;;;;9.84;5.29;;;;;;;8.25;74.16;97929.77;348166;113;1962011;-71
2021/01/25 05:02:09;;;;;;;10.52;5.79;;;;;;;8.27;74.17;97933.86;284258;116;2235985;-71
2021/01/25 05:03:15;;;;;;;10.92;6.28;;;;;;;8.26;74.04;97931.42;348702;116;1960887;-71
2021/01/25 05:04:21;;;;;;;10.63;6.62;;;;;;;8.29;74.09;97936.33;349267;116;1961991;-71
2021/01/25 05:05:27;;;;;;;12.59;6.18;;;;;;;8.26;74.23;97934.11;348887;116;1961948;-71
2021/01/25 05:06:34;;;;;;;9.69;5.48;;;;;;;8.24;74.34;97934.33;347871;116;1961056;-70
2021/01/25 05:07:40;;;;;;;11.13;6.21;;;;;;;8.29;74.18;97934.45;348469;116;1962877;-71
2021/01/25 05:08:46;;;;;;;9.75;6.04;;;;;;;8.32;73.95;97933.98;348253;113;1964106;-71